Time;durP1;ratioP1;P1;durP2;ratioP2;P2;SDS_P1;SDS_P2;PMS_P1;PMS_P2;Temp;Humidity;BMP_temperature;BMP_pressure;BME280_temperature;BME280_humidity;BME280_pressure;Samples;Min_cycle;Max_cycle;Signal;HPM_P1;HPM_P2
2021/05/09 00:00:52;;;;;;;1.08;0.90;;;14.30;71.60;;;;;;5055193;28;20136;-44
2021/05/09 00:03:19;;;;;;;1.33;1.20;;;14.30;71.60;;;;;;5055166;28;20481;-40
2021/05/09 00:05:46;;;;;;;1.00;0.88;;;14.30;71.50;;;;;;5054650;28;20053;-40
2021/05/09 00:08:12;;;;;;;1.10;1.00;;;14.30;72.20;;;;;;5054799;28;20056;-46
2021/05/09 00:10:38;;;;;;;1.05;0.90;;;14.30;71.60;;;;;;5054608;28;20106;-44
2021/05/09 00:13:09;;;;;;;0.77;0.77;;;14.30;71.50;;;;;;5054585;28;20045;-41
2021/05/09 00:15:37;;;;;;;1.10;1.00;;;14.30;71.50;;;;;;5055037;28;20049;-43
2021/05/09 00:18:05;;;;;;;1.98;0.80;;;14.30;71.50;;;;;;5055017;28;20049;-44
2021/05/09 00:20:32;;;;;;;0.95;0.88;;;14.30;71.60;;;;;;5053069;28;20053;-44
2021/05/09 00:22:58;;;;;;;1.20;1.10;;;14.30;71.60;;;;;;5054614;28;20045;-42
2021/05/09 00:25:23;;;;;;;1.10;1.00;;;14.30;71.50;;;;;;5054673;28;20048;-47
2021/05/09 00:27:49;;;;;;;1.02;0.90;;;14.30;71.60;;;;;;5053978;28;20066;-43
2021/05/09 00:30:16;;;;;;;1.20;1.10;;;14.30;71.60;;;;;;5054664;28;20545;-43
2021/05/09 00:32:46;;;;;;;1.10;0.98;;;14.30;71.60;;;;;;5054242;28;20508;-45
2021/05/09 00:35:12;;;;;;;1.33;1.08;;;14.40;71.60;;;;;;5054651;28;20076;-43
2021/05/09 00:37:39;;;;;;;0.85;0.85;;;14.40;71.60;;;;;;5054410;28;20052;-44
2021/05/09 00:40:06;;;;;;;0.90;0.90;;;14.30;71.60;;;;;;5054499;28;20135;-44
2021/05/09 00:42:32;;;;;;;0.90;0.80;;;14.40;71.60;;;;;;5053750;28;20048;-43
2021/05/09 00:44:58;;;;;;;1.23;1.13;;;14.30;71.60;;;;;;5054192;28;20060;-43
2021/05/09 00:47:24;;;;;;;1.23;1.13;;;14.30;71.60;;;;;;5054139;28;20052;-43
2021/05/09 00:49:50;;;;;;;1.52;0.90;;;14.30;71.60;;;;;;5054345;28;20056;-44
2021/05/09 00:52:16;;;;;;;1.15;1.05;;;14.40;71.70;;;;;;5053986;28;20052;-42
2021/05/09 00:54:58;;;;;;;1.23;1.10;;;14.30;71.60;;;;;;5053844;28;20048;-42
2021/05/09 00:57:25;;;;;;;0.80;0.80;;;14.40;71.70;;;;;;5053850;28;20075;-43
2021/05/09 00:59:52;;;;;;;1.15;1.05;;;14.40;71.70;;;;;;5053744;28;20044;-44
2021/05/09 01:02:19;;;;;;;1.17;0.90;;;14.30;71.60;;;;;;5053775;28;20045;-42
2021/05/09 01:04:46;;;;;;;1.20;1.00;;;14.30;71.60;;;;;;5053699;28;20040;-43
2021/05/09 01:07:15;;;;;;;1.05;1.02;;;14.40;71.70;;;;;;5053905;28;20041;-46
2021/05/09 01:09:52;;;;;;;1.10;1.00;;;14.40;71.60;;;;;;5053515;28;20049;-44
2021/05/09 01:12:18;;;;;;;1.10;1.00;;;14.30;71.60;;;;;;5053610;28;20056;-45
2021/05/09 01:14:44;;;;;;;1.15;1.00;;;14.40;71.70;;;;;;5053010;28;20408;-40
2021/05/09 01:17:11;;;;;;;0.80;0.80;;;14.40;71.60;;;;;;5053376;28;20041;-44
2021/05/09 01:19:39;;;;;;;1.33;1.20;;;14.30;71.60;;;;;;5053653;28;20052;-45
2021/05/09 01:22:10;;;;;;;1.35;1.00;;;14.40;71.60;;;;;;5053224;28;20083;-43
2021/05/09 01:24:36;;;;;;;1.45;1.00;;;14.40;71.60;;;;;;5053516;28;20056;-45
2021/05/09 01:27:04;;;;;;;1.20;1.10;;;14.40;71.60;;;;;;5052789;28;20045;-46
2021/05/09 01:29:31;;;;;;;1.10;1.00;;;14.30;71.60;;;;;;5052731;28;20509;-44
2021/05/09 01:31:56;;;;;;;1.00;0.90;;;14.40;71.60;;;;;;5052937;28;20045;-45
2021/05/09 01:34:22;;;;;;;1.20;1.10;;;14.30;71.60;;;;;;5052906;28;20041;-43
2021/05/09 01:36:48;;;;;;;0.80;0.80;;;14.30;71.60;;;;;;5052860;28;20099;-42
2021/05/09 01:39:14;;;;;;;0.98;0.93;;;14.30;71.60;;;;;;5053086;28;20445;-43
2021/05/09 01:41:39;;;;;;;1.23;1.13;;;14.40;71.60;;;;;;5053223;28;20049;-43
2021/05/09 01:44:05;;;;;;;1.20;1.00;;;14.30;71.60;;;;;;5052391;28;20124;-43
2021/05/09 01:46:32;;;;;;;1.10;0.98;;;14.30;71.60;;;;;;5052637;28;20095;-43
2021/05/09 01:48:58;;;;;;;1.48;1.15;;;14.40;71.70;;;;;;5051969;28;20045;-44
2021/05/09 01:51:24;;;;;;;1.23;1.13;;;14.50;71.70;;;;;;5052523;28;20418;-47
2021/05/09 01:53:50;;;;;;;1.27;0.90;;;14.40;71.70;;;;;;5052723;28;20123;-43
2021/05/09 01:56:20;;;;;;;1.10;1.00;;;14.30;71.60;;;;;;5053096;28;20056;-42
2021/05/09 01:58:46;;;;;;;1.35;0.98;;;14.30;71.60;;;;;;5052090;28;20044;-42
2021/05/09 02:01:11;;;;;;;1.90;1.08;;;14.40;71.70;;;;;;5052543;28;20488;-45
2021/05/09 02:03:37;;;;;;;1.75;1.23;;;14.40;71.70;;;;;;5052476;28;20052;-45
2021/05/09 02:06:04;;;;;;;1.17;1.10;;;14.30;71.60;;;;;;5052567;28;20116;-44
2021/05/09 02:08:30;;;;;;;1.38;1.27;;;14.30;71.60;;;;;;5052318;28;20067;-46
2021/05/09 02:10:56;;;;;;;1.40;1.30;;;14.40;71.70;;;;;;5052402;28;20045;-44
2021/05/09 02:13:22;;;;;;;1.65;1.08;;;14.30;71.70;;;;;;5052430;28;20400;-44
2021/05/09 02:15:48;;;;;;;1.83;1.20;;;14.30;71.60;;;;;;5052428;28;20045;-45
2021/05/09 02:18:14;;;;;;;1.42;1.10;;;14.40;71.70;;;;;;5052355;28;20106;-41
2021/05/09 02:20:40;;;;;;;1.20;1.10;;;14.30;71.70;;;;;;5052118;28;20049;-47
2021/05/09 02:23:07;;;;;;;1.42;1.10;;;14.30;71.70;;;;;;5052338;28;20049;-44
2021/05/09 02:25:33;;;;;;;1.02;0.98;;;14.20;71.60;;;;;;5052824;28;20052;-47
2021/05/09 02:27:59;;;;;;;1.38;1.05;;;14.30;71.70;;;;;;5052543;28;20041;-44
2021/05/09 02:30:25;;;;;;;1.08;0.90;;;14.30;71.70;;;;;;5052010;28;20057;-43
2021/05/09 02:32:51;;;;;;;0.90;0.90;;;14.30;71.70;;;;;;5052035;28;20069;-43
2021/05/09 02:35:17;;;;;;;1.20;1.10;;;14.30;72.40;;;;;;5052367;28;20069;-45
2021/05/09 02:37:42;;;;;;;1.25;1.15;;;14.40;71.80;;;;;;5052032;28;20485;-43
2021/05/09 02:40:09;;;;;;;1.10;1.02;;;14.30;71.70;;;;;;5051390;28;20040;-46
2021/05/09 02:42:35;;;;;;;1.63;1.40;;;14.30;71.70;;;;;;5051713;28;20052;-43
2021/05/09 02:45:02;;;;;;;1.20;1.10;;;14.30;71.70;;;;;;5050414;28;20040;-43
2021/05/09 02:47:28;;;;;;;1.35;1.25;;;14.30;71.80;;;;;;5051873;28;20489;-43
2021/05/09 02:49:57;;;;;;;1.20;1.10;;;14.30;71.80;;;;;;5051815;28;20083;-44
2021/05/09 02:52:23;;;;;;;1.73;1.25;;;14.30;71.80;;;;;;5051405;28;20481;-42
2021/05/09 02:54:49;;;;;;;1.67;1.30;;;14.40;71.80;;;;;;5052063;28;20134;-43
2021/05/09 02:57:15;;;;;;;0.95;0.90;;;14.30;71.80;;;;;;5051763;28;20083;-43
2021/05/09 02:59:41;;;;;;;1.40;1.27;;;14.30;71.80;;;;;;5051715;28;20040;-43
2021/05/09 03:02:07;;;;;;;1.20;1.10;;;14.40;71.80;;;;;;5051487;28;20545;-43
2021/05/09 03:04:32;;;;;;;1.20;1.10;;;14.40;71.80;;;;;;5051572;28;20327;-44
2021/05/09 03:06:58;;;;;;;1.45;1.30;;;14.30;71.80;;;;;;5052160;28;20377;-44
2021/05/09 03:09:24;;;;;;;1.25;1.15;;;14.30;71.80;;;;;;5051353;28;20049;-44
2021/05/09 03:11:49;;;;;;;1.20;1.10;;;14.30;71.80;;;;;;5051822;28;20049;-43
2021/05/09 03:14:15;;;;;;;1.27;1.13;;;14.30;71.80;;;;;;5051985;28;20053;-47
2021/05/09 03:16:41;;;;;;;1.65;1.20;;;14.30;71.80;;;;;;5051492;28;20045;-42
2021/05/09 03:19:07;;;;;;;1.35;1.20;;;14.30;71.80;;;;;;5051722;28;20422;-45
2021/05/09 03:21:33;;;;;;;2.70;1.20;;;14.30;71.80;;;;;;5051914;28;20076;-43
2021/05/09 03:23:59;;;;;;;1.27;1.00;;;14.30;72.40;;;;;;5051734;28;20048;-42
2021/05/09 03:26:24;;;;;;;1.00;1.00;;;14.30;71.80;;;;;;5051717;28;20098;-43
2021/05/09 03:28:50;;;;;;;1.50;1.40;;;14.30;71.80;;;;;;5051113;28;20052;-43
2021/05/09 03:31:16;;;;;;;1.35;1.08;;;14.30;71.80;;;;;;5051296;28;20052;-44
2021/05/09 03:33:41;;;;;;;1.20;1.10;;;14.30;71.80;;;;;;5051203;28;20405;-45
2021/05/09 03:36:07;;;;;;;1.33;1.23;;;14.30;71.80;;;;;;5050849;28;20064;-44
2021/05/09 03:38:33;;;;;;;1.15;1.05;;;14.30;71.80;;;;;;5050502;28;20040;-44
2021/05/09 03:40:59;;;;;;;2.10;1.38;;;14.30;72.30;;;;;;5050546;28;20037;-44
2021/05/09 03:43:24;;;;;;;2.05;1.20;;;14.30;72.50;;;;;;5050855;28;20505;-42
2021/05/09 03:45:50;;;;;;;1.30;1.20;;;14.30;71.80;;;;;;5051455;28;20047;-44
2021/05/09 03:48:16;;;;;;;1.17;1.05;;;14.30;71.80;;;;;;5051362;28;20172;-46
2021/05/09 03:50:41;;;;;;;0.90;0.90;;;14.30;71.80;;;;;;5051292;28;20053;-46
2021/05/09 03:53:07;;;;;;;1.33;0.90;;;14.30;71.80;;;;;;5051263;28;20128;-42
2021/05/09 03:55:33;;;;;;;1.30;1.20;;;14.30;71.80;;;;;;5053990;28;20055;-45
2021/05/09 03:57:59;;;;;;;1.75;1.30;;;14.30;71.80;;;;;;5055017;28;20136;-47
2021/05/09 04:00:25;;;;;;;1.17;1.08;;;14.30;71.80;;;;;;5055072;28;20508;-43
2021/05/09 04:02:51;;;;;;;1.40;1.27;;;14.30;71.80;;;;;;5054831;28;20049;-47
2021/05/09 04:05:17;;;;;;;1.20;1.10;;;14.30;71.80;;;;;;5054577;28;20468;-45
2021/05/09 04:07:43;;;;;;;1.00;1.00;;;14.30;71.80;;;;;;5055173;28;20132;-45
2021/05/09 04:10:09;;;;;;;0.93;0.93;;;14.30;71.80;;;;;;5054693;28;20041;-43
2021/05/09 04:12:34;;;;;;;1.17;1.08;;;14.30;71.80;;;;;;5054355;28;20481;-43
2021/05/09 04:15:00;;;;;;;1.55;1.10;;;14.30;71.80;;;;;;5054883;28;20064;-41
2021/05/09 04:17:26;;;;;;;1.20;1.10;;;14.30;71.80;;;;;;5054473;28;20535;-44
2021/05/09 04:19:52;;;;;;;0.98;0.98;;;14.30;71.80;;;;;;5037134;28;20052;-44
2021/05/09 04:22:18;;;;;;;1.70;1.10;;;14.30;71.80;;;;;;5054737;28;20049;-42
2021/05/09 04:24:44;;;;;;;1.27;0.98;;;14.30;71.80;;;;;;5054784;28;20053;-47
2021/05/09 04:27:10;;;;;;;1.92;1.10;;;14.30;71.80;;;;;;5054076;28;20041;-44
2021/05/09 04:29:36;;;;;;;1.15;1.05;;;14.30;71.80;;;;;;5054902;28;20045;-45
2021/05/09 04:32:03;;;;;;;1.20;1.10;;;14.30;71.80;;;;;;5055420;28;20063;-46
2021/05/09 04:34:29;;;;;;;1.95;1.20;;;14.30;71.80;;;;;;5054412;28;20051;-38
2021/05/09 04:36:55;;;;;;;1.20;1.08;;;14.30;71.80;;;;;;5054185;28;20131;-45
2021/05/09 04:39:21;;;;;;;1.30;1.10;;;14.30;71.80;;;;;;5054443;28;20136;-43
2021/05/09 04:41:46;;;;;;;1.13;1.02;;;14.30;71.80;;;;;;5054356;28;20434;-43
2021/05/09 04:44:12;;;;;;;1.30;1.20;;;14.30;71.80;;;;;;5054284;28;20071;-45
2021/05/09 04:46:38;;;;;;;1.33;1.23;;;14.30;71.80;;;;;;5054394;28;20129;-44
2021/05/09 04:49:03;;;;;;;1.42;1.17;;;14.40;71.80;;;;;;5054136;28;20056;-46
2021/05/09 04:51:29;;;;;;;1.52;1.33;;;14.30;71.80;;;;;;5054033;28;20049;-44
2021/05/09 04:53:55;;;;;;;1.40;1.30;;;14.30;71.80;;;;;;5054019;28;20068;-46
2021/05/09 04:56:21;;;;;;;1.27;1.00;;;14.30;71.80;;;;;;5054068;28;20049;-43
2021/05/09 04:58:46;;;;;;;1.88;1.20;;;14.30;71.80;;;;;;5053725;28;20497;-42
2021/05/09 05:01:13;;;;;;;0.80;0.80;;;14.30;71.80;;;;;;5053944;28;20050;-39
2021/05/09 05:03:39;;;;;;;1.20;1.00;;;14.30;71.80;;;;;;5053680;28;20037;-46
2021/05/09 05:06:05;;;;;;;1.38;1.17;;;14.30;71.80;;;;;;5053064;28;20049;-44
2021/05/09 05:08:32;;;;;;;1.42;1.20;;;14.30;71.80;;;;;;5053424;28;20047;-44
2021/05/09 05:11:04;;;;;;;1.35;1.25;;;14.30;71.90;;;;;;5053751;28;20053;-42
2021/05/09 05:13:31;;;;;;;1.40;0.93;;;14.30;71.80;;;;;;5053144;28;20068;-45
2021/05/09 05:15:59;;;;;;;1.52;1.23;;;14.30;72.50;;;;;;5053791;28;20425;-46
2021/05/09 05:18:26;;;;;;;1.38;1.27;;;14.30;71.80;;;;;;5052969;28;20074;-45
2021/05/09 05:21:05;;;;;;;1.40;1.20;;;14.30;71.80;;;;;;5053299;28;20040;-42
2021/05/09 05:23:32;;;;;;;0.93;0.90;;;14.30;71.90;;;;;;5053729;28;20072;-46
2021/05/09 05:25:58;;;;;;;1.27;1.17;;;14.30;71.90;;;;;;5053214;28;20052;-44
2021/05/09 05:28:24;;;;;;;1.17;1.05;;;14.30;71.90;;;;;;5053270;28;20523;-45
2021/05/09 05:30:50;;;;;;;1.38;1.27;;;14.30;71.90;;;;;;5053211;28;20053;-47
2021/05/09 05:33:32;;;;;;;1.20;1.10;;;14.30;71.90;;;;;;5053139;28;20048;-46
2021/05/09 05:36:00;;;;;;;1.10;1.00;;;14.30;71.90;;;;;;5052614;28;20110;-44
2021/05/09 05:38:26;;;;;;;1.10;1.00;;;14.30;71.90;;;;;;5052850;28;20045;-45
2021/05/09 05:40:55;;;;;;;1.30;1.10;;;14.30;71.90;;;;;;5052850;28;20393;-42
2021/05/09 05:43:25;;;;;;;1.30;1.20;;;14.30;71.90;;;;;;5053046;28;20484;-44
2021/05/09 05:45:52;;;;;;;1.25;1.10;;;14.30;71.80;;;;;;5053096;28;20048;-45
2021/05/09 05:48:19;;;;;;;0.88;0.88;;;14.30;71.80;;;;;;5053059;28;20041;-42
2021/05/09 05:50:45;;;;;;;1.13;1.02;;;14.30;71.80;;;;;;5052230;28;20044;-47
2021/05/09 05:53:11;;;;;;;0.88;0.88;;;14.30;71.80;;;;;;5053054;28;20147;-46
2021/05/09 05:55:37;;;;;;;1.30;1.15;;;14.30;71.80;;;;;;5052864;28;20473;-47
2021/05/09 05:58:03;;;;;;;1.10;0.98;;;14.30;71.80;;;;;;5052506;28;20044;-49
2021/05/09 06:00:29;;;;;;;1.02;0.90;;;14.40;71.80;;;;;;5052903;28;20124;-44
2021/05/09 06:02:54;;;;;;;3.92;1.30;;;14.30;71.90;;;;;;5052248;28;20503;-49
2021/05/09 06:05:20;;;;;;;1.65;1.20;;;14.30;71.80;;;;;;5052684;28;20120;-41
2021/05/09 06:07:46;;;;;;;1.10;1.00;;;14.40;71.80;;;;;;5052594;28;20425;-47
2021/05/09 06:10:12;;;;;;;1.00;0.90;;;14.30;71.80;;;;;;5052290;28;20508;-40
2021/05/09 06:12:38;;;;;;;1.20;1.10;;;14.40;71.90;;;;;;5052553;28;20128;-46
2021/05/09 06:15:04;;;;;;;1.30;1.08;;;14.30;71.80;;;;;;5052769;28;20048;-45
2021/05/09 06:17:30;;;;;;;1.08;0.98;;;14.30;71.90;;;;;;5052386;28;20497;-46
2021/05/09 06:19:56;;;;;;;1.00;1.00;;;14.30;71.90;;;;;;5052698;28;20064;-43
2021/05/09 06:22:22;;;;;;;1.13;1.02;;;14.30;71.90;;;;;;5052122;28;20401;-46
2021/05/09 06:24:47;;;;;;;0.90;0.90;;;14.30;71.90;;;;;;5042139;28;20512;-41
2021/05/09 06:27:13;;;;;;;1.13;1.00;;;14.40;72.00;;;;;;5050780;28;20518;-45
2021/05/09 06:29:39;;;;;;;1.02;0.95;;;14.30;72.00;;;;;;5052698;28;20053;-41
2021/05/09 06:32:05;;;;;;;1.45;1.10;;;14.40;72.00;;;;;;5052532;28;20084;-44
2021/05/09 06:34:31;;;;;;;1.13;1.02;;;14.40;72.00;;;;;;5052174;28;20080;-46
2021/05/09 06:36:56;;;;;;;0.85;0.85;;;14.30;72.00;;;;;;5052164;28;20049;-46
2021/05/09 06:39:27;;;;;;;1.75;1.30;;;14.40;72.10;;;;;;5052365;28;20049;-43
2021/05/09 06:41:57;;;;;;;0.80;0.80;;;14.30;72.10;;;;;;5052367;28;20053;-42
2021/05/09 06:44:25;;;;;;;0.85;0.80;;;14.40;72.10;;;;;;5051888;28;20041;-42
2021/05/09 06:46:50;;;;;;;1.10;1.02;;;14.40;72.10;;;;;;5052378;28;20072;-44
2021/05/09 06:49:16;;;;;;;1.35;1.10;;;14.40;72.10;;;;;;5052178;28;20041;-45
2021/05/09 06:51:42;;;;;;;0.70;0.70;;;14.40;72.20;;;;;;5034060;28;20135;-45
2021/05/09 06:54:08;;;;;;;0.80;0.80;;;14.40;72.20;;;;;;5051489;28;20048;-43
2021/05/09 06:56:34;;;;;;;0.80;0.80;;;14.40;72.20;;;;;;5052307;28;20045;-44
2021/05/09 06:59:00;;;;;;;0.80;0.80;;;14.40;72.20;;;;;;5051826;28;20165;-45
2021/05/09 07:01:25;;;;;;;0.98;0.88;;;14.40;72.20;;;;;;5052086;28;20131;-44
2021/05/09 07:03:52;;;;;;;1.08;0.98;;;14.40;72.20;;;;;;5052163;28;20049;-44
2021/05/09 07:06:18;;;;;;;1.10;1.00;;;14.40;72.20;;;;;;5051134;28;20106;-45
2021/05/09 07:08:44;;;;;;;1.17;1.00;;;14.40;72.20;;;;;;5051249;28;20510;-45
2021/05/09 07:11:09;;;;;;;1.02;0.80;;;14.40;72.20;;;;;;5051685;28;20044;-45
2021/05/09 07:13:35;;;;;;;1.08;1.00;;;14.40;72.20;;;;;;5051764;28;20049;-44
2021/05/09 07:16:01;;;;;;;1.10;1.00;;;14.40;72.20;;;;;;5051744;28;20482;-43
2021/05/09 07:18:28;;;;;;;0.70;0.70;;;14.40;72.20;;;;;;5051934;28;20053;-44
2021/05/09 07:20:56;;;;;;;0.88;0.80;;;14.40;72.20;;;;;;5051646;28;20041;-43
2021/05/09 07:23:22;;;;;;;1.25;0.90;;;14.40;72.20;;;;;;5033608;28;20090;-45
2021/05/09 07:25:49;;;;;;;1.10;1.00;;;14.50;72.30;;;;;;5051156;28;20045;-44
2021/05/09 07:28:16;;;;;;;1.20;1.10;;;14.50;72.20;;;;;;5047356;28;20059;-39
2021/05/09 07:30:43;;;;;;;1.00;0.90;;;14.50;72.20;;;;;;5052558;28;20080;-38
2021/05/09 07:33:12;;;;;;;0.77;0.77;;;14.50;72.20;;;;;;5054962;28;20119;-40
2021/05/09 07:35:37;;;;;;;1.20;1.10;;;14.50;72.20;;;;;;5055016;28;20156;-42
2021/05/09 07:38:05;;;;;;;0.90;0.90;;;14.50;72.20;;;;;;5054315;28;20045;-42
2021/05/09 07:40:30;;;;;;;0.90;0.90;;;14.50;72.20;;;;;;5054586;28;20045;-41
2021/05/09 07:42:56;;;;;;;0.90;0.85;;;14.50;72.10;;;;;;5053182;28;20074;-40
2021/05/09 07:45:23;;;;;;;1.00;0.90;;;14.50;72.10;;;;;;5037401;28;20128;-43
2021/05/09 07:47:49;;;;;;;1.20;1.10;;;14.50;72.10;;;;;;5038468;28;20056;-41
2021/05/09 07:50:17;;;;;;;0.70;0.70;;;14.50;72.00;;;;;;5051349;28;20045;-44
2021/05/09 07:52:44;;;;;;;0.90;0.88;;;14.50;72.00;;;;;;5051172;28;20092;-46
2021/05/09 07:55:10;;;;;;;0.90;0.85;;;14.50;72.00;;;;;;5050800;28;20041;-39
2021/05/09 07:57:36;;;;;;;1.35;1.10;;;14.50;72.00;;;;;;5051001;28;20056;-41
2021/05/09 08:00:07;;;;;;;1.23;0.90;;;14.60;72.00;;;;;;5050857;28;20493;-39
2021/05/09 08:02:33;;;;;;;1.10;1.00;;;14.60;72.00;;;;;;5051063;28;20129;-40
2021/05/09 08:04:59;;;;;;;1.05;0.95;;;14.60;72.00;;;;;;5050910;28;20148;-40
2021/05/09 08:07:25;;;;;;;0.70;0.70;;;14.60;71.90;;;;;;5050995;28;20455;-40
2021/05/09 08:09:50;;;;;;;0.80;0.80;;;14.70;71.90;;;;;;5049924;28;20056;-40
2021/05/09 08:12:16;;;;;;;0.60;0.60;;;14.60;71.80;;;;;;5050282;28;20049;-40
2021/05/09 08:14:42;;;;;;;2.17;1.10;;;14.60;71.90;;;;;;5050432;28;20115;-39
2021/05/09 08:17:08;;;;;;;0.80;0.80;;;14.60;71.80;;;;;;5044363;28;20143;-39
2021/05/09 08:19:33;;;;;;;0.85;0.85;;;14.70;71.90;;;;;;5044154;28;20453;-41
2021/05/09 08:22:02;;;;;;;1.00;0.88;;;14.60;71.80;;;;;;5030778;28;20398;-44
2021/05/09 08:24:29;;;;;;;0.93;0.90;;;14.70;71.90;;;;;;5012521;28;20050;-44
2021/05/09 08:26:55;;;;;;;0.95;0.90;;;14.70;71.80;;;;;;5037220;28;20141;-39
2021/05/09 08:29:20;;;;;;;0.93;0.82;;;14.70;71.80;;;;;;5052466;28;20135;-44
2021/05/09 08:31:47;;;;;;;1.20;1.00;;;14.70;71.80;;;;;;5054615;28;20045;-44
2021/05/09 08:34:12;;;;;;;0.98;0.95;;;14.70;71.80;;;;;;5052701;28;20040;-43
2021/05/09 08:36:38;;;;;;;0.70;0.70;;;14.80;71.80;;;;;;5034390;28;20055;-42
2021/05/09 08:39:04;;;;;;;0.80;0.75;;;14.80;71.80;;;;;;5034391;28;20073;-45
2021/05/09 08:41:30;;;;;;;0.77;0.77;;;14.80;71.80;;;;;;5033357;28;20111;-44
2021/05/09 08:43:56;;;;;;;2.53;1.20;;;14.70;71.80;;;;;;5034963;28;20485;-43
2021/05/09 08:46:22;;;;;;;0.98;0.98;;;14.80;71.80;;;;;;5034858;28;20057;-44
2021/05/09 08:48:50;;;;;;;0.55;0.55;;;14.80;71.80;;;;;;5053674;28;20052;-45
2021/05/09 08:51:16;;;;;;;0.80;0.80;;;14.80;71.80;;;;;;5053884;28;20045;-50
2021/05/09 08:53:44;;;;;;;0.80;0.80;;;14.80;71.80;;;;;;5054309;28;20037;-50
2021/05/09 08:56:10;;;;;;;1.05;0.80;;;14.80;71.80;;;;;;5053850;28;20041;-46
2021/05/09 08:58:38;;;;;;;1.00;0.90;;;14.80;71.70;;;;;;5053868;28;20503;-47
2021/05/09 09:01:04;;;;;;;0.93;0.70;;;14.90;71.80;;;;;;5054177;28;20440;-48
2021/05/09 09:03:32;;;;;;;0.98;0.73;;;14.90;71.70;;;;;;5054146;28;20124;-46
2021/05/09 09:05:59;;;;;;;0.98;0.88;;;14.90;71.70;;;;;;5053971;28;20146;-43
2021/05/09 09:08:25;;;;;;;0.93;0.90;;;15.00;71.80;;;;;;5053585;28;20139;-45
2021/05/09 09:10:52;;;;;;;0.70;0.70;;;14.90;71.70;;;;;;5053311;28;20132;-44
2021/05/09 09:13:28;;;;;;;1.15;0.90;;;14.90;71.60;;;;;;5053974;28;20048;-46
2021/05/09 09:16:01;;;;;;;0.70;0.70;;;14.90;71.60;;;;;;5053739;28;20049;-46
2021/05/09 09:18:40;;;;;;;0.68;0.60;;;15.00;71.60;;;;;;5053381;28;20118;-42
2021/05/09 09:21:24;;;;;;;0.90;0.90;;;15.00;71.60;;;;;;5053401;28;20080;-45
2021/05/09 09:24:11;;;;;;;0.95;0.88;;;15.00;71.60;;;;;;5053698;28;20068;-50
2021/05/09 09:26:41;;;;;;;0.70;0.70;;;15.00;71.50;;;;;;5053320;28;20124;-46
2021/05/09 09:29:29;;;;;;;0.88;0.70;;;15.00;71.50;;;;;;5053239;28;20071;-40
2021/05/09 09:32:00;;;;;;;1.23;0.73;;;15.10;71.50;;;;;;5033645;28;20111;-43
2021/05/09 09:34:40;;;;;;;0.50;0.50;;;15.10;71.40;;;;;;5033534;28;20041;-43
2021/05/09 09:37:07;;;;;;;1.27;0.80;;;15.10;71.30;;;;;;5033378;28;20083;-44
2021/05/09 09:39:59;;;;;;;0.70;0.70;;;15.10;71.30;;;;;;5033364;28;20129;-43
2021/05/09 09:42:38;;;;;;;0.98;0.82;;;15.10;71.20;;;;;;5033179;28;20053;-50
2021/05/09 09:45:13;;;;;;;1.13;1.02;;;15.10;71.20;;;;;;5033406;28;20124;-48
2021/05/09 09:48:05;;;;;;;1.13;0.80;;;15.10;71.10;;;;;;5033298;28;20049;-46
2021/05/09 09:50:46;;;;;;;2.75;0.90;;;15.20;71.10;;;;;;5031502;28;20052;-48
2021/05/09 09:53:31;;;;;;;0.80;0.80;;;15.20;71.10;;;;;;5033223;28;20104;-44
2021/05/09 09:56:00;;;;;;;0.68;0.68;;;15.20;71.00;;;;;;5033037;28;20041;-42
2021/05/09 09:58:38;;;;;;;1.00;0.90;;;15.20;71.00;;;;;;5033127;28;20054;-44
2021/05/09 10:01:04;;;;;;;0.75;0.75;;;15.20;70.90;;;;;;5033219;28;20195;-48
2021/05/09 10:03:30;;;;;;;0.80;0.77;;;15.20;70.80;;;;;;5035246;28;20041;-43
2021/05/09 10:05:58;;;;;;;1.08;0.82;;;15.30;70.90;;;;;;5052969;28;20076;-49
2021/05/09 10:08:28;;;;;;;1.00;0.90;;;15.20;70.90;;;;;;5052897;28;20434;-43
2021/05/09 10:10:54;;;;;;;1.23;0.90;;;15.30;70.80;;;;;;5052804;28;20083;-42
2021/05/09 10:13:21;;;;;;;0.60;0.60;;;15.30;70.70;;;;;;5034390;28;20041;-43
2021/05/09 10:15:47;;;;;;;0.85;0.85;;;15.20;70.70;;;;;;5052397;28;20397;-45
2021/05/09 10:18:14;;;;;;;1.02;0.85;;;15.30;70.70;;;;;;5052791;28;20178;-43
2021/05/09 10:20:41;;;;;;;0.75;0.68;;;15.30;70.60;;;;;;5052795;28;20044;-42
2021/05/09 10:23:07;;;;;;;1.05;0.90;;;15.40;70.70;;;;;;5052377;28;20414;-44
2021/05/09 10:25:54;;;;;;;0.90;0.80;;;15.30;70.60;;;;;;5052115;28;20064;-46
2021/05/09 10:28:26;;;;;;;1.08;0.98;;;15.40;70.50;;;;;;5052209;28;20045;-44
2021/05/09 10:30:56;;;;;;;0.93;0.85;;;15.40;70.50;;;;;;5052595;28;20135;-45
2021/05/09 10:33:40;;;;;;;1.00;0.82;;;15.40;71.10;;;;;;5052146;28;20079;-49
2021/05/09 10:36:07;;;;;;;0.90;0.80;;;15.40;70.40;;;;;;5052421;28;20052;-46
2021/05/09 10:39:07;;;;;;;0.90;0.88;;;15.40;70.40;;;;;;5052482;28;20045;-45
2021/05/09 10:41:57;;;;;;;1.00;0.95;;;15.40;70.30;;;;;;5052532;28;20175;-46
2021/05/09 10:44:46;;;;;;;0.90;0.80;;;15.40;70.30;;;;;;5051678;28;20037;-46
2021/05/09 10:47:31;;;;;;;0.80;0.80;;;15.40;70.30;;;;;;5052285;28;20048;-47
2021/05/09 10:50:17;;;;;;;0.70;0.60;;;15.50;70.30;;;;;;5052615;28;20057;-49
2021/05/09 10:52:45;;;;;;;0.95;0.80;;;15.40;70.20;;;;;;5052549;28;20053;-50
2021/05/09 10:55:36;;;;;;;0.93;0.93;;;15.40;70.20;;;;;;5052106;28;20049;-46
2021/05/09 10:58:03;;;;;;;1.17;0.90;;;15.40;70.20;;;;;;5051764;28;20049;-44
2021/05/09 11:00:57;;;;;;;0.65;0.65;;;15.40;70.20;;;;;;5052353;28;20139;-48
2021/05/09 11:03:38;;;;;;;0.70;0.60;;;15.40;70.20;;;;;;5051724;28;20116;-48
2021/05/09 11:06:05;;;;;;;1.25;1.05;;;15.40;70.10;;;;;;5051789;28;20076;-49
2021/05/09 11:08:43;;;;;;;0.70;0.70;;;15.40;70.10;;;;;;5051993;28;20053;-47
2021/05/09 11:11:12;;;;;;;0.77;0.70;;;15.40;70.10;;;;;;5051905;28;20080;-46
2021/05/09 11:13:56;;;;;;;0.80;0.80;;;15.40;70.10;;;;;;5051718;28;20160;-48
2021/05/09 11:16:23;;;;;;;0.68;0.68;;;15.40;70.00;;;;;;5033762;28;20485;-47
2021/05/09 11:19:02;;;;;;;0.70;0.60;;;15.50;70.10;;;;;;5051727;28;20056;-47
2021/05/09 11:21:31;;;;;;;0.90;0.73;;;15.50;70.00;;;;;;5052170;28;20071;-46
2021/05/09 11:23:58;;;;;;;0.70;0.70;;;15.50;70.10;;;;;;5051638;28;20048;-50
2021/05/09 11:26:30;;;;;;;0.80;0.80;;;15.50;70.00;;;;;;5051513;28;20056;-43
2021/05/09 11:29:16;;;;;;;0.70;0.70;;;15.50;70.10;;;;;;5037898;28;20378;-45
2021/05/09 11:31:55;;;;;;;1.05;0.70;;;15.40;70.00;;;;;;5032153;28;20053;-47
2021/05/09 11:34:22;;;;;;;0.70;0.70;;;15.50;70.00;;;;;;5031804;28;20069;-47
2021/05/09 11:36:57;;;;;;;0.80;0.80;;;15.50;70.00;;;;;;5031758;28;20065;-49
2021/05/09 11:39:33;;;;;;;0.80;0.63;;;15.50;70.00;;;;;;5051563;28;20045;-44
2021/05/09 11:42:03;;;;;;;0.80;0.80;;;15.50;70.00;;;;;;5051536;28;20098;-50
2021/05/09 11:44:36;;;;;;;0.90;0.90;;;15.50;70.00;;;;;;5051500;28;20053;-48
2021/05/09 11:47:07;;;;;;;0.70;0.70;;;15.50;70.00;;;;;;5051583;28;20449;-46
2021/05/09 11:49:35;;;;;;;0.80;0.80;;;15.50;70.00;;;;;;5051234;28;20080;-46
2021/05/09 11:52:06;;;;;;;0.85;0.73;;;15.50;70.00;;;;;;5051676;28;20056;-48
2021/05/09 11:54:38;;;;;;;0.90;0.90;;;15.50;70.00;;;;;;5051377;28;20123;-50
2021/05/09 11:57:08;;;;;;;1.35;0.80;;;15.50;70.00;;;;;;5051765;28;20122;-46
2021/05/09 11:59:38;;;;;;;1.08;0.93;;;15.50;70.00;;;;;;5050881;28;20045;-47
2021/05/09 12:02:26;;;;;;;1.23;0.90;;;15.50;70.00;;;;;;5051599;28;20051;-44
2021/05/09 12:04:56;;;;;;;0.75;0.75;;;15.50;70.00;;;;;;5051342;28;20474;-49
2021/05/09 12:07:55;;;;;;;1.25;0.88;;;15.50;70.00;;;;;;5051237;28;20052;-47
2021/05/09 12:10:23;;;;;;;1.00;0.90;;;15.50;70.00;;;;;;4951056;29;20070;-48
2021/05/09 12:12:54;;;;;;;1.10;1.00;;;15.50;70.00;;;;;;4951370;29;20059;-45
2021/05/09 12:15:19;;;;;;;0.93;0.80;;;15.50;70.00;;;;;;4952008;28;20143;-44
2021/05/09 12:17:56;;;;;;;0.70;0.68;;;15.50;70.00;;;;;;4954533;29;20206;-49
2021/05/09 12:20:33;;;;;;;0.82;0.80;;;15.50;70.00;;;;;;4954390;29;20055;-45
2021/05/09 12:23:06;;;;;;;0.80;0.80;;;15.50;70.00;;;;;;4953567;29;20459;-44
2021/05/09 12:25:40;;;;;;;1.10;0.93;;;15.50;70.00;;;;;;4954107;29;20078;-50
2021/05/09 12:28:16;;;;;;;0.75;0.75;;;15.50;70.00;;;;;;4954206;29;20055;-46
2021/05/09 12:30:46;;;;;;;0.80;0.80;;;15.50;70.00;;;;;;4937792;28;20381;-45
2021/05/09 12:33:12;;;;;;;0.70;0.70;;;15.50;70.00;;;;;;4946164;28;20043;-44
2021/05/09 12:35:46;;;;;;;0.80;0.70;;;15.60;70.10;;;;;;4940113;29;20684;-48
2021/05/09 12:38:20;;;;;;;0.70;0.70;;;15.60;70.00;;;;;;4940477;29;20126;-50
2021/05/09 12:40:46;;;;;;;1.08;0.98;;;15.60;70.00;;;;;;4941085;29;20556;-47
2021/05/09 12:43:11;;;;;;;0.73;0.70;;;15.60;70.00;;;;;;4945382;28;20054;-48
2021/05/09 12:45:44;;;;;;;1.27;0.85;;;15.60;70.00;;;;;;4977671;28;20494;-47
2021/05/09 12:48:11;;;;;;;0.80;0.80;;;15.60;70.00;;;;;;5038842;28;20046;-47
2021/05/09 12:50:44;;;;;;;0.88;0.85;;;15.60;70.00;;;;;;5040676;28;20048;-47
2021/05/09 12:53:09;;;;;;;1.00;0.82;;;15.60;70.00;;;;;;5041373;28;20354;-46
2021/05/09 12:55:35;;;;;;;0.70;0.70;;;15.60;70.00;;;;;;5041530;28;20049;-48